LSZA Informações do Aeroporto

Informações da Pista
Pista 01 Comprimento 4429 ft Largura 98 ft
Elevação 896 ft Limite 361 ft Heading 19
Pista 19 Comprimento 4429 ft Largura 98 ft
Elevação 915 ft Limite 672 ft Heading 199
Frequências do Aeroporto
Tipo ATIS Nome ATIS Frequência 121.175 MHZ
Tipo GND Nome GND Frequência 121.775 MHZ
Tipo TWR Nome TWR Frequência 120.25 MHZ
Navaids do Aeroporto
Informações meteorológicas do aeroporto e NOTAM
ADDS - METARS form results

(0042 UTC 31 May 2020)
Data provider http://aviationweather.gov/metar/data/
 
METAR text: LSZA 310020Z AUTO 23005KT 9999 OVC047 17/10 Q1017
Conditions at: LSZA (LUGANO (PVT/AUT), CH) observed 0020 UTC 31 May 2020
Temperature: 17.0°C (63°F)
Dewpoint: 10.0°C (50°F) [RH = 63%]
Pressure (altimeter): 30.03 inches Hg (1017.0 mb)
Winds: from the SW (230 degrees) at 6 MPH (5 knots; 2.6 m/s)
Visibility: 6 or more miles (10+ km)
Ceiling: 4700 feet AGL
Clouds: overcast cloud deck at 4700 feet AGL
Weather: no significant weather observed at this time

METAR text: LSZA 302350Z AUTO 21007KT 150V240 9999 BKN045 18/10 Q1017
Conditions at: LSZA (LUGANO (PVT/AUT), CH) observed 2350 UTC 30 May 2020
Temperature: 18.0°C (64°F)
Dewpoint: 10.0°C (50°F) [RH = 59%]
Pressure (altimeter): 30.03 inches Hg (1017.0 mb)
Winds: from the SSW (210 degrees) at 8 MPH (7 knots; 3.6 m/s)
Visibility: 6 or more miles (10+ km)
Ceiling: 4500 feet AGL
Clouds: broken clouds at 4500 feet AGL
Weather: no significant weather observed at this time

Forecast for: LSZA (LUGANO (PVT/AUT), CH)
Text: TAF LSZA 301425Z 3015/3024 19005KT 9999 FEW065 BKN120
Forecast period: 1500 UTC 30 May 2020 to 0000 UTC 31 May 2020
Forecast type: FROM: standard forecast or significant change
Winds: from the S (190 degrees) at 6 MPH (5 knots; 2.6 m/s)
Visibility: 6 or more miles 10+ km)
Ceiling: 12000 feet AGL
Clouds: few clouds at 6500 feet AGL
broken clouds at 12000 feet AGL
Weather: no significant weather forecast for this period
Text: TEMPO 3015/3024 SHRA SCT050TCU
Forecast period: 1500 UTC 30 May 2020 to 0000 UTC 31 May 2020
Forecast type: TEMPORARY: The following changes expected for less than half the time period
Visibility: missing
Ceiling: at least 12,000 feet AGL
Clouds: scattered clouds at 5000 feet AGL
Weather: SHRA  (rain showers)
Text: PROB40
Forecast period: 1500 UTC 30 May 2020 to 0000 UTC 31 May 2020
Forecast type: TEMPORARY: The following changes expected for less than half the time period
Winds: from the N (10 degrees) at 17 MPH (15 knots; 7.7 m/s)
gusting to 29 MPH (25 knots; 12.9 m/s)
Visibility: missing
Ceiling: at least 12,000 feet AGL
Clouds: few clouds at 4000 feet AGL
Weather: TSRA  (rain associated with thunderstorm(s))